createdAt,value
2022-09-12T00:01:35.725Z,11.80
2022-09-12T00:04:02.626Z,11.80
2022-09-12T00:06:38.477Z,11.80
2022-09-12T00:09:09.201Z,11.80
2022-09-12T00:11:41.145Z,11.80
2022-09-12T00:14:09.254Z,11.70
2022-09-12T00:16:36.522Z,11.70
2022-09-12T00:19:04.380Z,11.70
2022-09-12T00:21:33.376Z,11.70
2022-09-12T00:24:00.250Z,11.60
2022-09-12T00:26:27.179Z,11.60
2022-09-12T00:28:53.789Z,11.60
2022-09-12T00:31:26.294Z,11.50
2022-09-12T00:33:55.029Z,11.50
2022-09-12T00:36:23.982Z,11.50
2022-09-12T00:38:51.498Z,11.50
2022-09-12T00:41:39.460Z,11.50
2022-09-12T00:44:24.220Z,11.50
2022-09-12T00:47:00.728Z,11.50
2022-09-12T00:49:29.311Z,11.50
2022-09-12T00:52:10.442Z,11.50
2022-09-12T00:54:47.595Z,11.50
2022-09-12T00:57:17.342Z,11.50
2022-09-12T00:59:58.525Z,11.40
2022-09-12T01:02:25.721Z,11.40
2022-09-12T01:04:52.965Z,11.40
2022-09-12T01:07:21.127Z,11.40
2022-09-12T01:09:47.862Z,11.40
2022-09-12T01:12:16.029Z,11.40
2022-09-12T01:14:42.774Z,11.30
2022-09-12T01:17:12.818Z,11.30
2022-09-12T01:19:52.189Z,11.30
2022-09-12T01:22:44.933Z,11.30
2022-09-12T01:25:24.327Z,11.30
2022-09-12T01:28:24.675Z,11.30
2022-09-12T01:30:55.386Z,11.20
2022-09-12T01:33:34.441Z,11.20
2022-09-12T01:36:25.779Z,11.20
2022-09-12T01:39:10.451Z,11.20
2022-09-12T01:42:10.075Z,11.20
2022-09-12T01:45:03.358Z,11.10
2022-09-12T01:47:50.314Z,11.00
2022-09-12T01:50:22.783Z,11.00
2022-09-12T01:53:00.436Z,11.00
2022-09-12T01:55:49.779Z,11.10
2022-09-12T01:58:21.743Z,11.10
2022-09-12T02:00:55.883Z,11.00
2022-09-12T02:03:29.230Z,11.00
2022-09-12T02:06:08.511Z,11.00
2022-09-12T02:08:44.211Z,10.90
2022-09-12T02:11:12.586Z,10.90
2022-09-12T02:13:53.506Z,10.90
2022-09-12T02:16:28.984Z,11.00
2022-09-12T02:19:00.452Z,10.90
2022-09-12T02:21:32.769Z,10.90
2022-09-12T02:24:02.947Z,10.90
2022-09-12T02:26:36.464Z,10.90
2022-09-12T02:29:04.460Z,10.80
2022-09-12T02:31:36.438Z,10.80
2022-09-12T02:34:11.389Z,10.70
2022-09-12T02:37:02.205Z,10.70
2022-09-12T02:39:29.212Z,10.70
2022-09-12T02:41:59.151Z,10.70
2022-09-12T02:44:28.097Z,10.70
2022-09-12T02:47:01.098Z,10.70
2022-09-12T02:49:27.697Z,10.70
2022-09-12T02:51:54.443Z,10.70
2022-09-12T02:54:21.647Z,10.60
2022-09-12T02:56:48.294Z,10.60
2022-09-12T02:59:19.227Z,10.60
2022-09-12T03:02:11.750Z,10.60
2022-09-12T03:04:41.364Z,10.60
2022-09-12T03:07:38.727Z,10.60
2022-09-12T03:10:35.946Z,10.60
2022-09-12T03:13:17.555Z,10.50
2022-09-12T03:16:11.857Z,10.50
2022-09-12T03:19:10.384Z,10.50
2022-09-12T03:22:07.014Z,10.50
2022-09-12T03:24:38.407Z,10.40
2022-09-12T03:27:14.007Z,10.40
2022-09-12T03:29:43.158Z,10.40
2022-09-12T03:32:09.761Z,10.40
2022-09-12T03:34:36.423Z,10.40
2022-09-12T03:37:03.349Z,10.40
2022-09-12T03:39:31.325Z,10.50
2022-09-12T03:41:58.057Z,10.40
2022-09-12T03:44:25.488Z,10.40
2022-09-12T03:46:52.218Z,10.40
2022-09-12T03:49:18.920Z,10.40
2022-09-12T03:51:45.534Z,10.40
2022-09-12T03:54:12.400Z,10.30
2022-09-12T03:56:41.490Z,10.30
2022-09-12T03:59:08.173Z,10.30
2022-09-12T04:01:35.011Z,10.30
2022-09-12T04:04:01.736Z,10.20
2022-09-12T04:06:28.329Z,10.20
2022-09-12T04:08:55.484Z,10.20
2022-09-12T04:11:23.030Z,10.10
2022-09-12T04:13:50.206Z,10.10
2022-09-12T04:16:17.874Z,10.00
2022-09-12T04:18:45.166Z,10.10
2022-09-12T04:21:15.332Z,10.00
2022-09-12T04:23:42.682Z,10.00
2022-09-12T04:26:10.040Z,10.00
2022-09-12T04:28:38.101Z,10.00
2022-09-12T04:31:12.207Z,9.90
2022-09-12T04:33:38.836Z,9.90
2022-09-12T04:36:07.875Z,9.90
2022-09-12T04:38:36.054Z,9.80
2022-09-12T04:41:33.693Z,9.80
2022-09-12T04:44:03.369Z,9.80
2022-09-12T04:46:39.123Z,9.90
2022-09-12T04:49:06.098Z,9.90
2022-09-12T04:51:35.910Z,9.80
2022-09-12T04:54:10.297Z,9.90
2022-09-12T04:56:39.259Z,9.80
2022-09-12T04:59:06.839Z,9.80
2022-09-12T05:01:33.602Z,9.90
2022-09-12T05:04:00.304Z,9.90
2022-09-12T05:06:29.929Z,9.90
2022-09-12T05:08:58.371Z,9.90
2022-09-12T05:11:41.143Z,10.00
2022-09-12T05:14:14.246Z,10.00
2022-09-12T05:16:41.165Z,10.00
2022-09-12T05:19:09.159Z,10.00
2022-09-12T05:21:35.722Z,10.00
2022-09-12T05:24:02.600Z,10.10
2022-09-12T05:26:29.319Z,10.00
2022-09-12T05:28:56.558Z,10.10
2022-09-12T05:31:25.579Z,10.00
2022-09-12T05:33:54.265Z,10.10
2022-09-12T05:36:23.943Z,10.10
2022-09-12T05:38:51.148Z,10.10
2022-09-12T05:41:24.693Z,10.10
2022-09-12T05:43:55.832Z,10.20
2022-09-12T05:46:25.753Z,10.20
2022-09-12T05:48:56.348Z,10.30
2022-09-12T05:51:28.314Z,10.30
2022-09-12T05:53:57.389Z,10.40
2022-09-12T05:56:27.260Z,10.50
2022-09-12T05:59:05.474Z,10.60
2022-09-12T06:01:34.228Z,10.70
2022-09-12T06:04:03.942Z,10.80
2022-09-12T06:09:02.973Z,10.90
2022-09-12T06:11:33.147Z,11.00
2022-09-12T06:14:00.303Z,11.10
2022-09-12T06:16:29.688Z,11.20
2022-09-12T06:18:58.807Z,11.30
2022-09-12T06:21:26.900Z,11.40
2022-09-12T06:23:58.808Z,11.50
2022-09-12T06:26:26.030Z,11.60
2022-09-12T06:28:54.582Z,11.70
2022-09-12T06:31:25.181Z,11.80
2022-09-12T06:33:53.572Z,11.90
2022-09-12T06:36:22.954Z,12.10
2022-09-12T06:38:58.294Z,12.10
2022-09-12T06:43:54.054Z,12.20
2022-09-12T06:46:21.619Z,12.40
2022-09-12T13:22:55.943Z,12.50
2022-09-12T13:25:29.070Z,24.90
2022-09-12T13:28:13.698Z,24.70
2022-09-12T13:30:43.977Z,24.70
2022-09-12T13:38:41.759Z,24.70
2022-09-12T13:41:30.856Z,24.80
2022-09-12T13:43:57.826Z,24.70
2022-09-12T13:51:28.675Z,24.80
2022-09-12T13:53:58.683Z,25.70
2022-09-12T13:56:25.757Z,26.60
2022-09-12T13:59:00.848Z,28.10
2022-09-12T14:01:42.759Z,28.90
2022-09-12T14:07:22.260Z,30.20
2022-09-12T14:09:58.152Z,31.50
2022-09-12T14:12:43.852Z,32.00
2022-09-12T14:15:22.142Z,32.30
2022-09-12T14:17:51.988Z,32.30
2022-09-12T14:20:20.462Z,32.50
2022-09-12T14:22:50.995Z,32.60
2022-09-12T14:25:23.564Z,32.40
2022-09-12T14:27:55.227Z,32.00
2022-09-12T14:30:23.933Z,32.20
2022-09-12T14:33:12.142Z,32.00
2022-09-12T14:36:06.613Z,31.40
2022-09-12T14:39:03.766Z,31.10
2022-09-12T14:41:40.703Z,31.10
2022-09-12T14:44:16.428Z,31.00
2022-09-12T14:46:44.913Z,30.70
2022-09-12T14:49:23.352Z,30.30
2022-09-12T14:52:01.602Z,29.80
2022-09-12T14:54:28.289Z,29.50
2022-09-12T14:56:57.529Z,29.20
2022-09-12T14:59:35.823Z,29.10
2022-09-12T15:02:21.085Z,29.30
2022-09-12T15:05:16.064Z,29.00
2022-09-12T15:07:54.034Z,29.20
2022-09-12T15:10:37.603Z,29.20
2022-09-12T15:13:10.323Z,28.90
2022-09-12T15:15:38.487Z,28.70
2022-09-12T15:20:36.561Z,28.90
2022-09-12T15:23:03.329Z,30.10
2022-09-12T15:25:30.002Z,30.40
2022-09-12T15:27:56.671Z,30.60
2022-09-12T15:30:23.741Z,30.30
2022-09-12T15:32:50.295Z,30.00
2022-09-12T15:35:19.130Z,29.70
2022-09-12T15:37:45.789Z,30.20
2022-09-12T15:40:13.155Z,30.30
2022-09-12T15:42:40.259Z,29.90
2022-09-12T15:45:19.857Z,29.80
2022-09-12T15:47:46.596Z,29.60
2022-09-12T15:50:13.563Z,29.40
2022-09-12T15:52:41.252Z,29.40
2022-09-12T15:55:23.181Z,29.60
2022-09-12T15:57:50.254Z,29.90
2022-09-12T16:00:18.002Z,29.70
2022-09-12T16:02:46.725Z,29.20
2022-09-12T16:05:16.973Z,28.70
2022-09-12T16:07:44.619Z,28.60
2022-09-12T16:10:19.100Z,28.40
2022-09-12T16:12:46.149Z,28.20
2022-09-12T16:15:21.353Z,28.10
2022-09-12T16:17:47.963Z,27.90
2022-09-12T16:20:14.869Z,27.90
2022-09-12T16:25:09.098Z,27.90
2022-09-12T16:27:36.760Z,28.10
2022-09-12T16:30:06.060Z,28.10
2022-09-12T16:32:33.053Z,27.90
2022-09-12T16:34:59.742Z,27.70
2022-09-12T16:37:26.461Z,27.50
2022-09-12T16:39:53.709Z,27.40
2022-09-12T16:42:20.440Z,27.00
2022-09-12T16:44:47.193Z,26.70
2022-09-12T16:47:14.602Z,26.30
2022-09-12T16:49:41.252Z,26.10
2022-09-12T16:52:08.061Z,25.90
2022-09-12T16:54:34.831Z,25.60
2022-09-12T16:57:01.528Z,25.70
2022-09-12T16:59:28.108Z,25.60
2022-09-12T17:01:54.717Z,25.30
2022-09-12T17:04:23.712Z,25.20
2022-09-12T17:06:50.457Z,24.90
2022-09-12T17:09:18.597Z,24.70
2022-09-12T17:11:47.672Z,24.30
2022-09-12T17:14:14.292Z,23.70
2022-09-12T17:16:46.933Z,23.10
2022-09-12T17:19:23.552Z,22.50
2022-09-12T17:21:50.243Z,22.20
2022-09-12T17:24:17.976Z,21.80
2022-09-12T17:26:45.376Z,21.40
2022-09-12T17:29:15.812Z,21.20
2022-09-12T17:31:43.820Z,21.00
2022-09-12T17:34:14.233Z,20.70
2022-09-12T17:36:44.069Z,20.60
2022-09-12T17:39:11.652Z,20.40
2022-09-12T17:41:38.430Z,20.20
2022-09-12T17:44:07.253Z,20.10
2022-09-12T17:46:36.526Z,19.80
2022-09-12T17:49:05.988Z,19.70
2022-09-12T17:51:33.020Z,19.60
2022-09-12T17:54:09.951Z,19.40
2022-09-12T17:56:37.655Z,19.30
2022-09-12T17:59:06.171Z,19.10
2022-09-12T18:01:51.973Z,19.00
2022-09-12T18:04:20.008Z,18.90
2022-09-12T18:06:48.730Z,18.80
2022-09-12T18:09:18.641Z,18.70
2022-09-12T18:11:46.105Z,18.50
2022-09-12T18:14:14.358Z,18.40
2022-09-12T18:16:41.829Z,18.30
2022-09-12T18:19:08.555Z,18.20
2022-09-12T18:21:35.231Z,18.20
2022-09-12T18:24:02.941Z,18.10
2022-09-12T18:26:30.722Z,18.00
2022-09-12T18:28:58.207Z,18.00
2022-09-12T18:31:28.668Z,18.00
2022-09-12T18:33:55.960Z,17.90
2022-09-12T18:36:22.685Z,17.80
2022-09-12T18:38:49.667Z,17.80
2022-09-12T18:41:21.924Z,17.70
2022-09-12T18:43:49.394Z,17.60
2022-09-12T18:46:18.498Z,17.50
2022-09-12T18:48:46.020Z,17.50
2022-09-12T18:51:18.527Z,17.30
2022-09-12T18:53:51.981Z,17.20
2022-09-12T18:56:19.608Z,17.20
2022-09-12T18:58:53.690Z,17.10
2022-09-12T19:01:25.638Z,17.10
2022-09-12T19:03:53.379Z,17.10
2022-09-12T19:06:22.787Z,17.00
2022-09-12T19:08:50.604Z,17.00
2022-09-12T19:11:17.860Z,16.90
2022-09-12T19:13:46.210Z,16.80
2022-09-12T19:16:22.619Z,16.70
2022-09-12T19:18:49.839Z,16.70
2022-09-12T19:21:22.395Z,16.60
2022-09-12T19:23:49.828Z,16.50
2022-09-12T19:26:17.871Z,16.40
2022-09-12T19:28:45.304Z,16.30
2022-09-12T19:31:14.946Z,16.20
2022-09-12T19:33:42.202Z,16.20
2022-09-12T19:36:27.544Z,16.00
2022-09-12T19:38:58.644Z,15.90
2022-09-12T19:41:25.385Z,15.80
2022-09-12T19:43:51.982Z,15.80
2022-09-12T19:46:23.373Z,15.80
2022-09-12T19:48:50.115Z,15.80
2022-09-12T19:51:17.606Z,15.80
2022-09-12T19:53:44.733Z,15.80
2022-09-12T19:56:13.917Z,15.80
2022-09-12T19:58:46.524Z,15.80
2022-09-12T20:01:24.956Z,15.70
2022-09-12T20:03:53.688Z,15.70
2022-09-12T20:06:20.484Z,15.70
2022-09-12T20:08:47.307Z,15.60
2022-09-12T20:11:17.359Z,15.60
2022-09-12T20:13:44.836Z,15.50
2022-09-12T20:16:20.546Z,15.50
2022-09-12T20:18:49.314Z,15.50
2022-09-12T20:21:21.986Z,15.40
2022-09-12T20:23:48.678Z,15.40
2022-09-12T20:26:15.533Z,15.30
2022-09-12T20:28:42.279Z,15.30
2022-09-12T20:31:14.412Z,15.20
2022-09-12T20:33:41.684Z,15.10
2022-09-12T20:36:14.552Z,15.00
2022-09-12T20:38:42.690Z,14.90
2022-09-12T20:41:10.871Z,14.80
2022-09-12T20:43:40.878Z,14.80
2022-09-12T20:46:12.281Z,14.70
2022-09-12T20:48:39.222Z,14.60
2022-09-12T20:51:07.030Z,14.70
2022-09-12T20:53:35.184Z,14.70
2022-09-12T20:56:02.586Z,14.60
2022-09-12T20:58:29.141Z,14.60
2022-09-12T21:00:55.804Z,14.60
2022-09-12T21:03:22.572Z,14.60
2022-09-12T21:05:49.129Z,14.60
2022-09-12T21:08:15.832Z,14.60
2022-09-12T21:10:43.911Z,14.50
2022-09-12T21:13:11.346Z,14.50
2022-09-12T21:15:39.594Z,14.50
2022-09-12T21:18:06.388Z,14.40
2022-09-12T21:20:33.083Z,14.30
2022-09-12T21:23:00.232Z,14.30
2022-09-12T21:25:28.823Z,14.30
2022-09-12T21:27:55.451Z,14.30
2022-09-12T21:30:22.322Z,14.20
2022-09-12T21:32:48.957Z,14.20
2022-09-12T21:35:15.601Z,14.20
2022-09-12T21:37:42.149Z,14.30
2022-09-12T21:40:09.096Z,14.30
2022-09-12T21:42:35.705Z,14.30
2022-09-12T21:45:02.389Z,14.20
2022-09-12T21:47:29.047Z,14.30
2022-09-12T21:49:55.671Z,14.30
2022-09-12T21:52:22.247Z,14.30
2022-09-12T21:54:48.900Z,14.30
2022-09-12T21:57:15.587Z,14.40
2022-09-12T21:59:42.288Z,14.40
2022-09-12T22:02:10.137Z,14.40
2022-09-12T22:04:36.700Z,14.30
2022-09-12T22:07:03.330Z,14.20
2022-09-12T22:09:30.097Z,14.20
2022-09-12T22:11:56.686Z,14.10
2022-09-12T22:14:23.488Z,14.10
2022-09-12T22:16:50.052Z,14.00
2022-09-12T22:19:16.659Z,14.00
2022-09-12T22:22:03.242Z,14.00
2022-09-12T22:24:29.847Z,13.90
2022-09-12T22:26:59.027Z,13.90
2022-09-12T22:29:26.509Z,13.80
2022-09-12T22:31:53.638Z,13.80
2022-09-12T22:34:20.279Z,13.70
2022-09-12T22:36:48.606Z,13.70
2022-09-12T22:39:15.547Z,13.60
2022-09-12T22:41:42.176Z,13.60
2022-09-12T22:44:10.449Z,13.70
2022-09-12T22:46:37.901Z,13.60
2022-09-12T22:49:05.736Z,13.50
2022-09-12T22:51:32.921Z,13.50
2022-09-12T22:53:59.852Z,13.50
2022-09-12T22:56:27.453Z,13.40
2022-09-12T22:58:54.153Z,13.40
2022-09-12T23:01:21.111Z,13.40
2022-09-12T23:03:47.789Z,13.40
2022-09-12T23:06:14.595Z,13.30
2022-09-12T23:08:41.393Z,13.30
2022-09-12T23:11:10.799Z,13.30
2022-09-12T23:13:38.274Z,13.30
2022-09-12T23:16:07.057Z,13.20
2022-09-12T23:18:37.272Z,13.30
2022-09-12T23:21:08.572Z,13.30
2022-09-12T23:23:35.846Z,13.20
2022-09-12T23:26:08.238Z,13.30
2022-09-12T23:28:35.524Z,13.30
2022-09-12T23:31:02.665Z,13.30
2022-09-12T23:33:30.876Z,13.20
2022-09-12T23:36:06.303Z,13.20
2022-09-12T23:38:34.890Z,13.20
2022-09-12T23:41:03.197Z,13.10
2022-09-12T23:43:30.667Z,13.10
2022-09-12T23:45:57.891Z,13.00
2022-09-12T23:48:25.065Z,13.00
2022-09-12T23:50:52.662Z,12.90
2022-09-12T23:53:20.220Z,12.80
2022-09-12T23:55:47.506Z,12.70
2022-09-12T23:58:14.870Z,12.60
